D/T METAR WX W/DIR W/SPE G/SPE TEMP DEWP
16/01/19 03:00 EINN 160300Z 24007KT 9999 -RA FEW012 SCT025 BKN045 07/05 Q1005 NOSIG -RA WSW (240°) 8.1mph 7°C 5°C
16/01/19 02:30 EINN 160230Z 24010KT 9999 -RA FEW008 BKN015 BKN028 06/05 Q1005 TEMPO BKN008 -RA WSW (240°) 11.5mph 6°C 5°C
16/01/19 02:00 EINN 160200Z 25009KT 9999 -RA FEW007 BKN014 BKN025 07/05 Q1005 TEMPO BKN008 -RA WSW (250°) 10.4mph 7°C 5°C
16/01/19 01:30 EINN 160130Z 27011KT 8000 -RA FEW007 SCT012 BKN018 07/05 Q1006 TEMPO BKN008 -RA W (270°) 12.7mph 7°C 5°C
16/01/19 01:00 EINN 160100Z 28014KT 7000 -RA FEW006 SCT011 BKN017 07/06 Q1005 TEMPO BKN008 -RA W (280°) 16.1mph 7°C 6°C
16/01/19 00:30 EINN 160030Z 29012KT 4000 -RADZ FEW006 SCT008 BKN014 08/07 Q1005 TEMPO BKN008 -RA -DZ WNW (290°) 13.8mph 8°C 7°C
16/01/19 00:00 EINN 160000Z 20011KT 9999 -RA FEW015 SCT026 BKN050 09/06 Q1005 NOSIG -RA SSW (200°) 12.7mph 9°C 6°C
15/01/19 23:30 EINN 152330Z 19011KT 9999 FEW045 BKN060 BKN200 09/06 Q1005 NOSIG S (190°) 12.7mph 9°C 6°C
15/01/19 23:00 EINN 152300Z 20011KT 9999 FEW032 SCT050 BKN220 09/06 Q1006 NOSIG SSW (200°) 12.7mph 9°C 6°C
15/01/19 22:30 EINN 152230Z 20014KT 9999 FEW016 SCT045 09/06 Q1006 NOSIG SSW (200°) 16.1mph 9°C 6°C
15/01/19 22:00 EINN 152200Z 20012KT 9999 FEW013 BKN040 09/07 Q1007 NOSIG SSW (200°) 13.8mph 9°C 7°C
15/01/19 21:30 EINN 152130Z 21012KT 9999 -DZ FEW009 SCT015 BKN030 09/07 Q1007 NOSIG -DZ SSW (210°) 13.8mph 9°C 7°C
15/01/19 21:00 EINN 152100Z 20009KT 9999 -DZ FEW012 SCT025 BKN035 09/07 Q1008 NOSIG -DZ SSW (200°) 10.4mph 9°C 7°C
15/01/19 20:30 EINN 152030Z 20010KT 9999 FEW008 BKN042 09/07 Q1008 NOSIG SSW (200°) 11.5mph 9°C 7°C
15/01/19 20:00 EINN 152000Z 17007KT 9999 FEW006 SCT014 BKN035 09/08 Q1008 NOSIG S (170°) 8.1mph 9°C 8°C
15/01/19 19:30 EINN 151930Z 17010KT 9999 FEW010 SCT016 BKN035 09/08 Q1009 NOSIG S (170°) 11.5mph 9°C 8°C
15/01/19 19:00 EINN 151900Z 19009KT 9999 FEW011 BKN015 BKN026 09/07 Q1009 NOSIG S (190°) 10.4mph 9°C 7°C
15/01/19 18:30 EINN 151830Z 19007KT 9999 FEW009 BKN016 BKN024 09/07 Q1010 NOSIG S (190°) 8.1mph 9°C 7°C
15/01/19 18:00 EINN 151800Z 21009KT 9999 FEW009 BKN024 09/07 Q1010 NOSIG SSW (210°) 10.4mph 9°C 7°C
15/01/19 17:30 EINN 151730Z 19008KT 9999 FEW009 SCT045 BKN200 09/08 Q1010 NOSIG S (190°) 9.2mph 9°C 8°C
15/01/19 17:00 EINN 151700Z 22009KT 9999 FEW005 SCT009 BKN042 09/08 Q1011 NOSIG SW (220°) 10.4mph 9°C 8°C
15/01/19 16:30 EINN 151630Z 23008KT 3000 -DZ FEW006 BKN008 BKN011 09/09 Q1011 NOSIG -DZ SW (230°) 9.2mph 9°C 9°C
15/01/19 16:00 EINN 151600Z 23012KT 6000 -DZ FEW007 BKN013 BKN030 10/08 Q1012 TEMPO BKN020 -DZ SW (230°) 13.8mph 10°C 8°C
15/01/19 15:30 EINN 151530Z 21011KT 9999 FEW007 SCT015 BKN030 10/08 Q1012 NOSIG SSW (210°) 12.7mph 10°C 8°C
15/01/19 15:00 EINN 151500Z 19007KT 9999 FEW010 SCT024 BKN036 10/08 Q1013 NOSIG S (190°) 8.1mph 10°C 8°C
15/01/19 14:30 EINN 151430Z 21011KT 9999 FEW010 SCT018 BKN240 10/08 Q1013 NOSIG SSW (210°) 12.7mph 10°C 8°C
15/01/19 14:00 EINN 151400Z 21008KT 9999 FEW010 SCT016 BKN030 10/08 Q1014 NOSIG SSW (210°) 9.2mph 10°C 8°C
15/01/19 13:30 EINN 151330Z 20007KT 9999 FEW008 BKN012 BKN020 10/08 Q1014 NOSIG SSW (200°) 8.1mph 10°C 8°C
15/01/19 13:00 EINN 151300Z 21012KT 9999 -DZ SCT009 BKN012 10/08 Q1015 NOSIG -DZ SSW (210°) 13.8mph 10°C 8°C
15/01/19 12:30 EINN 151230Z 19010KT 9999 FEW010 BKN015 10/08 Q1015 NOSIG S (190°) 11.5mph 10°C 8°C
15/01/19 12:00 EINN 151200Z 19008KT 9999 -DZ SCT010 BKN013 09/07 Q1016 NOSIG -DZ S (190°) 9.2mph 9°C 7°C
15/01/19 11:30 EINN 151130Z 19010KT 9999 -DZ SCT010 BKN013 09/07 Q1016 NOSIG -DZ S (190°) 11.5mph 9°C 7°C
15/01/19 11:00 EINN 151100Z 19009KT 9999 FEW013 BKN032 09/07 Q1017 NOSIG S (190°) 10.4mph 9°C 7°C
15/01/19 10:30 EINN 151030Z 18007KT 9999 FEW010 BKN013 08/07 Q1017 NOSIG S (180°) 8.1mph 8°C 7°C
15/01/19 10:00 EINN 151000Z 19007KT 9999 FEW008 SCT012 BKN018 08/07 Q1017 NOSIG S (190°) 8.1mph 8°C 7°C
15/01/19 09:30 EINN 150930Z 18006KT 9999 FEW008 BKN012 BKN020 08/07 Q1018 NOSIG S (180°) 6.9mph 8°C 7°C
15/01/19 09:00 EINN 150900Z 18007KT 9999 FEW008 SCT014 BKN028 07/07 Q1018 TEMPO BKN012 S (180°) 8.1mph 7°C 7°C
15/01/19 08:30 EINN 150830Z 17004KT 9999 FEW005 SCT013 BKN024 07/06 Q1018 TEMPO 3000 BKN005 S (170°) 4.6mph 7°C 6°C
15/01/19 08:00 EINN 150800Z 18004KT 9999 FEW005 BKN030 BKN220 07/06 Q1018 TEMPO 3000 BKN005 S (180°) 4.6mph 7°C 6°C
15/01/19 07:30 EINN 150730Z 19005KT 9999 FEW010 SCT035 BKN230 06/06 Q1018 TEMPO 3000 BKN005 S (190°) 5.8mph 6°C 6°C
15/01/19 07:00 EINN 150700Z 16004KT 9999 FEW005 BKN034 06/05 Q1019 TEMPO 3000 BKN005 SSE (160°) 4.6mph 6°C 5°C
15/01/19 06:30 EINN 150630Z 17003KT 9000 R24/P2000 R06/P2000 MIFG FEW005 BKN038 05/05 Q1019 TEMPO 3000 BKN005 MIFG S (170°) 3.5mph 5°C 5°C
15/01/19 06:00 EINN 150600Z 14002KT 8000 R24/1400D R06/P2000 MIFG FEW004 BKN042 05/04 Q1019 TEMPO 3000 BKN005 MIFG SE (140°) 2.3mph 5°C 4°C
15/01/19 05:30 EINN 150530Z VRB03KT 9999 FEW008 05/04 Q1019 TEMPO 5000 BKN010 N (0°) 3.5mph 5°C 4°C
15/01/19 05:00 EINN 150500Z VRB03KT 9999 FEW008 06/05 Q1020 TEMPO 5000 BKN010 N (0°) 3.5mph 6°C 5°C
15/01/19 04:30 EINN 150430Z 19005KT 9999 FEW008 06/06 Q1020 TEMPO 5000 BKN010 S (190°) 5.8mph 6°C 6°C
15/01/19 04:00 EINN 150400Z 23005KT 200V270 9999 FEW010 07/06 Q1020 TEMPO 5000 BKN010 SW (230°) 5.8mph 7°C 6°C
15/01/19 03:30 EINN 150330Z 21008KT 9999 FEW010 08/07 Q1020 TEMPO 5000 BKN010 SSW (210°) 9.2mph 8°C 7°C
15/01/19 03:00 EINN 150300Z 21009KT 9999 FEW008 08/07 Q1021 TEMPO 5000 BKN010 SSW (210°) 10.4mph 8°C 7°C
15/01/19 02:30 EINN 150230Z 23010KT 9999 SCT007 BKN042 09/08 Q1021 TEMPO 4000 SW (230°) 11.5mph 9°C 8°C
15/01/19 02:00 EINN 150200Z 23009KT 9999 BKN007 BKN044 09/08 Q1021 TEMPO 4000 SW (230°) 10.4mph 9°C 8°C
15/01/19 01:30 EINN 150130Z 23009KT 9999 BKN007 BKN045 09/08 Q1022 TEMPO 4000 SW (230°) 10.4mph 9°C 8°C
15/01/19 01:00 EINN 150100Z 23011KT 9999 SCT007 BKN046 09/08 Q1022 TEMPO 4000 BKN007 SW (230°) 12.7mph 9°C 8°C
15/01/19 00:30 EINN 150030Z 22008KT 9999 FEW005 SCT008 BKN045 08/08 Q1022 TEMPO 4000 BKN007 SW (220°) 9.2mph 8°C 8°C
15/01/19 00:00 EINN 150000Z 24007KT 9999 SCT007 BKN040 08/08 Q1022 TEMPO 4000 BKN007 WSW (240°) 8.1mph 8°C 8°C
14/01/19 23:30 EINN 142330Z 23005KT 9999 FEW003 BKN036 09/08 Q1022 TEMPO 4000 BKN007 SW (230°) 5.8mph 9°C 8°C
14/01/19 23:00 EINN 142300Z 23009KT 3000 -RADZ SCT001 BKN004 09/08 Q1022 NOSIG -RA -DZ SW (230°) 10.4mph 9°C 8°C
14/01/19 22:30 EINN 142230Z 23010KT 3000 -RADZ SCT001 BKN004 09/08 Q1023 NOSIG -RA -DZ SW (230°) 11.5mph 9°C 8°C
14/01/19 22:00 EINN 142200Z 23008KT 3000 -RADZ SCT003 BKN005 09/08 Q1023 NOSIG -RA -DZ SW (230°) 9.2mph 9°C 8°C
14/01/19 21:30 EINN 142130Z 23009KT 7000 FEW002 BKN005 BKN008 09/08 Q1023 TEMPO 4000 SW (230°) 10.4mph 9°C 8°C
14/01/19 21:00 EINN 142100Z 23010KT 5000 -DZ FEW003 BKN005 BKN008 09/08 Q1023 NOSIG -DZ SW (230°) 11.5mph 9°C 8°C
14/01/19 20:30 EINN 142030Z 22009KT 4000 -DZ SCT003 BKN005 BKN008 09/08 Q1023 NOSIG -DZ SW (220°) 10.4mph 9°C 8°C
14/01/19 20:00 EINN 142000Z 23007KT 4000 -DZ FEW003 SCT005 BKN007 09/08 Q1023 NOSIG -DZ SW (230°) 8.1mph 9°C 8°C
14/01/19 19:30 EINN 141930Z 24008KT 9999 FEW007 BKN012 BKN017 09/07 Q1023 NOSIG WSW (240°) 9.2mph 9°C 7°C
14/01/19 19:00 EINN 141900Z 25008KT 9999 FEW010 BKN016 BKN028 09/07 Q1023 NOSIG WSW (250°) 9.2mph 9°C 7°C
14/01/19 18:30 EINN 141830Z 24008KT 9999 FEW009 BKN015 09/08 Q1024 NOSIG WSW (240°) 9.2mph 9°C 8°C
14/01/19 18:00 EINN 141800Z 21007KT 8000 -DZ FEW003 SCT006 BKN009 09/08 Q1024 NOSIG -DZ SSW (210°) 8.1mph 9°C 8°C
14/01/19 17:30 EINN 141730Z 21008KT 3000 -DZ FEW002 BKN004 BKN007 09/08 Q1024 BECMG 4000 -DZ SSW (210°) 9.2mph 9°C 8°C
14/01/19 17:00 EINN 141700Z 24007KT 4000 -DZ SCT008 BKN010 09/08 Q1024 BECMG 8000 -DZ WSW (240°) 8.1mph 9°C 8°C
14/01/19 16:30 EINN 141630Z 22008KT 9999 FEW006 SCT009 BKN013 09/07 Q1024 NOSIG SW (220°) 9.2mph 9°C 7°C
14/01/19 16:00 EINN 141600Z 23009KT 8000 FEW005 SCT008 BKN012 09/08 Q1024 NOSIG SW (230°) 10.4mph 9°C 8°C
14/01/19 15:30 EINN 141530Z 24010KT 9999 FEW010 BKN014 09/07 Q1024 NOSIG WSW (240°) 11.5mph 9°C 7°C
14/01/19 15:00 EINN 141500Z 25008KT 9999 -DZ FEW011 SCT015 BKN019 09/07 Q1024 NOSIG -DZ WSW (250°) 9.2mph 9°C 7°C
14/01/19 14:30 EINN 141430Z 26010KT 9999 FEW017 BKN019 10/06 Q1024 NOSIG W (260°) 11.5mph 10°C 6°C
14/01/19 14:00 EINN 141400Z 23007KT 9999 FEW020 SCT026 BKN040 10/06 Q1024 NOSIG SW (230°) 8.1mph 10°C 6°C
14/01/19 13:30 EINN 141330Z 24006KT 9999 FEW022 BKN026 10/05 Q1025 NOSIG WSW (240°) 6.9mph 10°C 5°C
14/01/19 13:00 EINN 141300Z 26007KT 9999 BKN025 09/05 Q1025 NOSIG W (260°) 8.1mph 9°C 5°C
14/01/19 12:30 EINN 141230Z 24009KT 9999 FEW023 BKN030 09/05 Q1025 NOSIG WSW (240°) 10.4mph 9°C 5°C
14/01/19 12:00 EINN 141200Z 26007KT 9999 BKN024 09/05 Q1025 NOSIG W (260°) 8.1mph 9°C 5°C
14/01/19 11:30 EINN 141130Z 26008KT 9999 FEW026 BKN030 09/06 Q1025 NOSIG W (260°) 9.2mph 9°C 6°C
14/01/19 11:00 EINN 141100Z 26007KT 9999 BKN030 08/05 Q1026 NOSIG W (260°) 8.1mph 8°C 5°C
14/01/19 10:30 EINN 141030Z 25006KT 9999 BKN028 08/05 Q1025 NOSIG WSW (250°) 6.9mph 8°C 5°C
14/01/19 10:00 EINN 141000Z 24005KT 9999 FEW024 SCT030 BKN035 08/05 Q1025 NOSIG WSW (240°) 5.8mph 8°C 5°C
14/01/19 09:30 EINN 140930Z 25005KT 9999 FEW027 BKN035 08/04 Q1025 NOSIG WSW (250°) 5.8mph 8°C 4°C
14/01/19 09:00 EINN 140900Z 25004KT 9999 FEW030 BKN035 07/04 Q1025 NOSIG WSW (250°) 4.6mph 7°C 4°C
14/01/19 08:30 EINN 140830Z 25003KT 9999 FEW020 SCT034 BKN060 07/04 Q1025 NOSIG WSW (250°) 3.5mph 7°C 4°C
14/01/19 08:00 EINN 140800Z 28005KT 9999 FEW020 BKN035 07/04 Q1025 NOSIG W (280°) 5.8mph 7°C 4°C
14/01/19 07:30 EINN 140730Z 26005KT 9999 FEW020 SCT033 BKN038 08/04 Q1025 NOSIG W (260°) 5.8mph 8°C 4°C
14/01/19 07:00 EINN 140700Z 28004KT 9999 FEW015 BKN033 08/04 Q1025 NOSIG W (280°) 4.6mph 8°C 4°C
14/01/19 06:30 EINN 140630Z 28005KT 9999 FEW015 BKN035 08/04 Q1025 NOSIG W (280°) 5.8mph 8°C 4°C
14/01/19 06:00 EINN 140600Z 27006KT 9999 FEW015 BKN030 08/04 Q1025 NOSIG W (270°) 6.9mph 8°C 4°C
14/01/19 05:30 EINN 140530Z 26007KT 9999 FEW015 BKN033 08/04 Q1025 NOSIG W (260°) 8.1mph 8°C 4°C
14/01/19 05:00 EINN 140500Z 27009KT 9999 FEW015 BKN034 08/03 Q1025 NOSIG W (270°) 10.4mph 8°C 3°C
14/01/19 04:30 EINN 140430Z 29008KT 9999 FEW015 BKN034 09/03 Q1025 NOSIG WNW (290°) 9.2mph 9°C 3°C
14/01/19 04:00 EINN 140400Z 28006KT 9999 FEW015 BKN034 08/04 Q1025 NOSIG W (280°) 6.9mph 8°C 4°C
14/01/19 03:30 EINN 140330Z 27008KT 9999 FEW015 BKN030 08/04 Q1025 NOSIG W (270°) 9.2mph 8°C 4°C
14/01/19 03:00 EINN 140300Z 28008KT 9999 FEW015 BKN034 09/03 Q1025 NOSIG W (280°) 9.2mph 9°C 3°C
14/01/19 02:30 EINN 140230Z 29011KT 9999 FEW015 BKN035 09/02 Q1025 NOSIG WNW (290°) 12.7mph 9°C 2°C
14/01/19 02:00 EINN 140200Z 29010KT 9999 FEW015 BKN035 09/03 Q1024 NOSIG WNW (290°) 11.5mph 9°C 3°C
14/01/19 01:30 EINN 140130Z 29010KT 9999 FEW015 BKN035 09/03 Q1024 NOSIG WNW (290°) 11.5mph 9°C 3°C
14/01/19 01:00 EINN 140100Z 29013KT 9999 FEW015 BKN034 09/04 Q1024 NOSIG WNW (290°) 15.0mph 9°C 4°C
14/01/19 00:30 EINN 140030Z 28009KT 9999 FEW015 BKN033 09/04 Q1024 NOSIG W (280°) 10.4mph 9°C 4°C
14/01/19 00:00 EINN 140000Z 29009KT 9999 FEW015 BKN035 09/03 Q1024 NOSIG WNW (290°) 10.4mph 9°C 3°C
13/01/19 23:30 EINN 132330Z 28010KT 9999 FEW015 BKN037 09/04 Q1024 NOSIG W (280°) 11.5mph 9°C 4°C
13/01/19 23:00 EINN 132300Z 28008KT 9999 FEW015 BKN035 09/05 Q1023 NOSIG W (280°) 9.2mph 9°C 5°C
13/01/19 22:30 EINN 132230Z 29011KT 9999 FEW015 BKN030 09/04 Q1023 NOSIG WNW (290°) 12.7mph 9°C 4°C
13/01/19 22:00 EINN 132200Z 30008KT 9999 FEW015 BKN035 09/04 Q1023 NOSIG WNW (300°) 9.2mph 9°C 4°C
13/01/19 21:30 EINN 132130Z 30010KT 9999 FEW015 BKN034 09/04 Q1023 NOSIG WNW (300°) 11.5mph 9°C 4°C
13/01/19 21:00 EINN 132100Z 29011KT 9999 FEW015 BKN034 09/04 Q1023 NOSIG WNW (290°) 12.7mph 9°C 4°C
13/01/19 20:30 EINN 132030Z 31010KT 9999 FEW015 BKN028 09/04 Q1023 NOSIG NW (310°) 11.5mph 9°C 4°C
13/01/19 20:00 EINN 132000Z 32015KT 9999 FEW021 BKN035 09/04 Q1022 NOSIG NW (320°) 17.3mph 9°C 4°C
13/01/19 19:30 EINN 131930Z 32015KT 9999 FEW021 BKN035 09/06 Q1022 NOSIG NW (320°) 17.3mph 9°C 6°C
13/01/19 19:00 EINN 131900Z 30014KT 9999 FEW018 BKN028 09/05 Q1021 NOSIG WNW (300°) 16.1mph 9°C 5°C
13/01/19 18:30 EINN 131830Z 30016KT 9999 FEW021 09/05 Q1021 NOSIG WNW (300°) 18.4mph 9°C 5°C
13/01/19 18:00 EINN 131800Z 30012KT 9999 FEW010 09/06 Q1021 NOSIG WNW (300°) 13.8mph 9°C 6°C
13/01/19 17:30 EINN 131730Z 29016KT 9999 FEW008 09/06 Q1021 NOSIG WNW (290°) 18.4mph 9°C 6°C
13/01/19 17:00 EINN 131700Z 30017KT 9999 FEW008 SCT022 10/07 Q1021 NOSIG WNW (300°) 19.6mph 10°C 7°C
13/01/19 16:30 EINN 131630Z 29016KT 9999 FEW008 SCT024 10/07 Q1021 NOSIG WNW (290°) 18.4mph 10°C 7°C
13/01/19 16:00 EINN 131600Z 30022KT 9999 FEW007 SCT025 10/07 Q1020 NOSIG WNW (300°) 25.3mph 10°C 7°C
13/01/19 15:30 EINN 131530Z 29019KT 9999 FEW006 SCT012 BKN026 11/08 Q1020 NOSIG WNW (290°) 21.9mph 11°C 8°C
13/01/19 15:00 EINN 131500Z 29022KT 9000 -DZ FEW005 SCT010 BKN018 10/09 Q1020 NOSIG -DZ WNW (290°) 25.3mph 10°C 9°C
13/01/19 14:30 EINN 131430Z 28020KT 7000 -DZ FEW005 SCT009 BKN016 11/10 Q1020 NOSIG -DZ W (280°) 23.0mph 11°C 10°C
13/01/19 14:00 EINN 131400Z 28022G32KT 7000 -DZ FEW006 SCT010 BKN018 11/10 Q1020 NOSIG -DZ W (280°) 25.3mph 36.8mph 11°C 10°C
13/01/19 13:30 EINN 131330Z 28019G31KT 7000 -DZ FEW006 SCT010 BKN017 11/10 Q1021 NOSIG -DZ W (280°) 21.9mph 35.7mph 11°C 10°C
13/01/19 13:00 EINN 131300Z 28018KT 6000 -DZ FEW005 BKN008 BKN012 10/10 Q1021 BECMG BKN015 -DZ W (280°) 20.7mph 10°C 10°C
13/01/19 12:30 EINN 131230Z 27017KT 4000 -DZ FEW005 BKN007 BKN011 10/10 Q1021 NOSIG -DZ W (270°) 19.6mph 10°C 10°C
13/01/19 12:00 EINN 131200Z 27018KT 3000 -DZ FEW004 BKN007 BKN011 10/10 Q1021 REDZ NOSIG -DZ W (270°) 20.7mph 10°C 10°C
13/01/19 11:30 EINN 131130Z 26017KT 2500 DZ FEW003 BKN006 BKN010 10/09 Q1021 NOSIG DZ W (260°) 19.6mph 10°C 9°C
13/01/19 11:00 EINN 131100Z 26016KT 2500 DZ FEW003 BKN005 BKN010 10/09 Q1022 NOSIG DZ W (260°) 18.4mph 10°C 9°C
13/01/19 10:30 EINN 131030Z 26016KT 2500 -DZ FEW002 BKN005 OVC008 10/09 Q1022 NOSIG -DZ W (260°) 18.4mph 10°C 9°C
13/01/19 10:00 EINN 131000Z 25013KT 3000 -DZ BR FEW002 BKN004 BKN008 09/09 Q1022 NOSIG -DZ BR WSW (250°) 15.0mph 9°C 9°C
13/01/19 09:30 EINN 130930Z 25014KT 3000 -DZ BR FEW002 BKN004 BKN007 09/08 Q1022 NOSIG -DZ BR WSW (250°) 16.1mph 9°C 8°C
13/01/19 09:00 EINN 130900Z 25016KT 4000 -DZ FEW003 BKN005 BKN010 09/08 Q1022 TEMPO 3000 BKN004 -DZ WSW (250°) 18.4mph 9°C 8°C
13/01/19 08:30 EINN 130830Z 25016KT 5000 -DZ FEW004 BKN009 BKN030 09/08 Q1022 NOSIG -DZ WSW (250°) 18.4mph 9°C 8°C
13/01/19 08:00 EINN 130800Z 26018KT 9999 -DZ FEW008 BKN013 BKN035 09/08 Q1022 NOSIG -DZ W (260°) 20.7mph 9°C 8°C
13/01/19 07:30 EINN 130730Z 26017KT 9999 FEW008 SCT013 BKN035 09/07 Q1022 NOSIG W (260°) 19.6mph 9°C 7°C
13/01/19 07:00 EINN 130700Z 26014KT 9999 FEW007 BKN012 09/08 Q1022 TEMPO 4000 W (260°) 16.1mph 9°C 8°C
13/01/19 06:30 EINN 130630Z 26019KT 9999 FEW007 BKN011 09/07 Q1022 TEMPO 4000 W (260°) 21.9mph 9°C 7°C
13/01/19 06:00 EINN 130600Z 26019KT 9999 -DZ FEW007 BKN012 09/08 Q1022 TEMPO 4000 -DZ W (260°) 21.9mph 9°C 8°C
13/01/19 05:30 EINN 130530Z 26021KT 9999 FEW007 BKN012 09/07 Q1022 TEMPO 4000 W (260°) 24.2mph 9°C 7°C
13/01/19 05:00 EINN 130500Z 26016KT 9000 FEW008 BKN011 BKN050 09/08 Q1023 TEMPO 4000 W (260°) 18.4mph 9°C 8°C
13/01/19 04:30 EINN 130430Z 27016KT 9000 -DZ SCT007 BKN011 09/08 Q1024 TEMPO 4000 -DZ W (270°) 18.4mph 9°C 8°C
13/01/19 04:00 EINN 130400Z 27014KT 9999 SCT007 BKN011 09/07 Q1024 NOSIG W (270°) 16.1mph 9°C 7°C
13/01/19 03:30 EINN 130330Z 26016KT 9999 SCT007 BKN010 09/07 Q1024 TEMPO 4000 W (260°) 18.4mph 9°C 7°C